sensor_id;sensor_type;location;lat;lon;timestamp;P1;durP1;ratioP1;P2;durP2;ratioP2
36303;SDS011;22335;49.800;8.596;2022-08-01T00:03:00;4.60;;;4.30;;
36303;SDS011;22335;49.800;8.596;2022-08-01T00:09:45;5.00;;;4.45;;
36303;SDS011;22335;49.800;8.596;2022-08-01T00:16:34;5.20;;;4.70;;
36303;SDS011;22335;49.800;8.596;2022-08-01T00:23:19;4.63;;;4.43;;
36303;SDS011;22335;49.800;8.596;2022-08-01T00:30:05;4.32;;;4.10;;
36303;SDS011;22335;49.800;8.596;2022-08-01T00:36:58;4.40;;;4.13;;
36303;SDS011;22335;49.800;8.596;2022-08-01T00:43:43;4.72;;;4.32;;
36303;SDS011;22335;49.800;8.596;2022-08-01T00:50:29;4.18;;;3.97;;
36303;SDS011;22335;49.800;8.596;2022-08-01T00:57:17;4.90;;;4.60;;
36303;SDS011;22335;49.800;8.596;2022-08-01T01:04:22;4.45;;;4.15;;
36303;SDS011;22335;49.800;8.596;2022-08-01T01:11:09;4.65;;;4.25;;
36303;SDS011;22335;49.800;8.596;2022-08-01T01:18:09;5.40;;;4.43;;
36303;SDS011;22335;49.800;8.596;2022-08-01T01:25:08;4.82;;;4.43;;
36303;SDS011;22335;49.800;8.596;2022-08-01T01:32:17;4.20;;;4.00;;
36303;SDS011;22335;49.800;8.596;2022-08-01T01:39:11;4.78;;;4.38;;
36303;SDS011;22335;49.800;8.596;2022-08-01T01:45:58;4.28;;;3.97;;
36303;SDS011;22335;49.800;8.596;2022-08-01T01:52:49;3.92;;;3.72;;
36303;SDS011;22335;49.800;8.596;2022-08-01T01:59:36;4.35;;;4.05;;
36303;SDS011;22335;49.800;8.596;2022-08-01T02:06:24;4.68;;;3.95;;
36303;SDS011;22335;49.800;8.596;2022-08-01T02:13:14;4.15;;;3.75;;
36303;SDS011;22335;49.800;8.596;2022-08-01T02:20:01;3.60;;;3.40;;
36303;SDS011;22335;49.800;8.596;2022-08-01T02:26:49;3.92;;;3.67;;
36303;SDS011;22335;49.800;8.596;2022-08-01T02:33:40;4.32;;;4.13;;
36303;SDS011;22335;49.800;8.596;2022-08-01T02:40:31;3.55;;;3.40;;
36303;SDS011;22335;49.800;8.596;2022-08-01T03:01:10;4.13;;;3.88;;
36303;SDS011;22335;49.800;8.596;2022-08-01T03:08:00;4.13;;;3.83;;
36303;SDS011;22335;49.800;8.596;2022-08-01T03:14:55;4.72;;;4.00;;
36303;SDS011;22335;49.800;8.596;2022-08-01T03:21:45;4.47;;;4.15;;
36303;SDS011;22335;49.800;8.596;2022-08-01T03:28:33;4.60;;;4.30;;
36303;SDS011;22335;49.800;8.596;2022-08-01T03:35:25;4.88;;;4.47;;
36303;SDS011;22335;49.800;8.596;2022-08-01T03:42:19;4.72;;;4.35;;
36303;SDS011;22335;49.800;8.596;2022-08-01T03:49:11;4.85;;;4.45;;
36303;SDS011;22335;49.800;8.596;2022-08-01T03:56:03;3.95;;;3.70;;
36303;SDS011;22335;49.800;8.596;2022-08-01T04:02:53;4.57;;;4.20;;
36303;SDS011;22335;49.800;8.596;2022-08-01T04:09:40;4.28;;;3.97;;
36303;SDS011;22335;49.800;8.596;2022-08-01T04:16:26;4.68;;;4.28;;
36303;SDS011;22335;49.800;8.596;2022-08-01T04:23:14;4.32;;;4.05;;
36303;SDS011;22335;49.800;8.596;2022-08-01T04:30:03;4.03;;;3.72;;
36303;SDS011;22335;49.800;8.596;2022-08-01T04:36:58;7.68;;;3.97;;
36303;SDS011;22335;49.800;8.596;2022-08-01T04:43:49;8.30;;;4.10;;
36303;SDS011;22335;49.800;8.596;2022-08-01T04:50:36;5.95;;;3.63;;
36303;SDS011;22335;49.800;8.596;2022-08-01T04:57:23;9.63;;;4.55;;
36303;SDS011;22335;49.800;8.596;2022-08-01T05:04:11;4.53;;;4.00;;
36303;SDS011;22335;49.800;8.596;2022-08-01T05:10:57;4.40;;;4.20;;
36303;SDS011;22335;49.800;8.596;2022-08-01T05:17:43;5.35;;;4.85;;
36303;SDS011;22335;49.800;8.596;2022-08-01T05:24:31;4.35;;;4.05;;
36303;SDS011;22335;49.800;8.596;2022-08-01T05:31:20;5.35;;;3.95;;
36303;SDS011;22335;49.800;8.596;2022-08-01T05:38:06;4.65;;;4.30;;
36303;SDS011;22335;49.800;8.596;2022-08-01T05:44:57;4.22;;;3.92;;
36303;SDS011;22335;49.800;8.596;2022-08-01T05:51:43;4.20;;;3.90;;
36303;SDS011;22335;49.800;8.596;2022-08-01T05:58:29;5.25;;;4.05;;
36303;SDS011;22335;49.800;8.596;2022-08-01T06:05:17;7.85;;;4.53;;
36303;SDS011;22335;49.800;8.596;2022-08-01T06:12:03;4.80;;;3.75;;
36303;SDS011;22335;49.800;8.596;2022-08-01T06:18:50;4.78;;;4.07;;
36303;SDS011;22335;49.800;8.596;2022-08-01T06:25:39;4.22;;;3.92;;
36303;SDS011;22335;49.800;8.596;2022-08-01T06:32:25;4.15;;;3.95;;
36303;SDS011;22335;49.800;8.596;2022-08-01T06:39:12;4.75;;;4.45;;
36303;SDS011;22335;49.800;8.596;2022-08-01T06:46:00;5.20;;;4.63;;
36303;SDS011;22335;49.800;8.596;2022-08-01T06:52:46;3.88;;;3.60;;
36303;SDS011;22335;49.800;8.596;2022-08-01T06:59:31;3.85;;;3.60;;
36303;SDS011;22335;49.800;8.596;2022-08-01T07:06:20;4.00;;;3.70;;
36303;SDS011;22335;49.800;8.596;2022-08-01T07:13:06;3.97;;;3.78;;
36303;SDS011;22335;49.800;8.596;2022-08-01T07:19:53;4.00;;;3.70;;
36303;SDS011;22335;49.800;8.596;2022-08-01T07:26:42;4.40;;;4.20;;
36303;SDS011;22335;49.800;8.596;2022-08-01T07:33:34;4.25;;;4.05;;
36303;SDS011;22335;49.800;8.596;2022-08-01T07:40:29;4.20;;;3.90;;
36303;SDS011;22335;49.800;8.596;2022-08-01T07:47:22;4.82;;;4.53;;
36303;SDS011;22335;49.800;8.596;2022-08-01T07:54:09;6.07;;;4.10;;
36303;SDS011;22335;49.800;8.596;2022-08-01T08:00:54;4.20;;;3.85;;
36303;SDS011;22335;49.800;8.596;2022-08-01T08:07:42;4.50;;;4.20;;
36303;SDS011;22335;49.800;8.596;2022-08-01T08:14:28;4.20;;;3.97;;
36303;SDS011;22335;49.800;8.596;2022-08-01T08:21:13;4.30;;;4.00;;
36303;SDS011;22335;49.800;8.596;2022-08-01T08:28:02;4.95;;;3.90;;
36303;SDS011;22335;49.800;8.596;2022-08-01T08:34:48;4.63;;;4.43;;
36303;SDS011;22335;49.800;8.596;2022-08-01T08:41:34;4.03;;;3.83;;
36303;SDS011;22335;49.800;8.596;2022-08-01T08:48:22;3.90;;;3.65;;
36303;SDS011;22335;49.800;8.596;2022-08-01T08:55:09;4.82;;;4.53;;
36303;SDS011;22335;49.800;8.596;2022-08-01T09:01:56;4.38;;;4.07;;
36303;SDS011;22335;49.800;8.596;2022-08-01T09:08:45;4.32;;;4.03;;
36303;SDS011;22335;49.800;8.596;2022-08-01T09:15:37;4.47;;;4.15;;
36303;SDS011;22335;49.800;8.596;2022-08-01T09:22:28;4.70;;;4.40;;
36303;SDS011;22335;49.800;8.596;2022-08-01T09:29:22;4.70;;;4.40;;
36303;SDS011;22335;49.800;8.596;2022-08-01T09:36:22;4.35;;;4.05;;
36303;SDS011;22335;49.800;8.596;2022-08-01T09:43:11;4.70;;;4.45;;
36303;SDS011;22335;49.800;8.596;2022-08-01T09:50:00;6.93;;;4.35;;
36303;SDS011;22335;49.800;8.596;2022-08-01T09:56:51;7.60;;;5.20;;
36303;SDS011;22335;49.800;8.596;2022-08-01T10:03:37;4.50;;;4.10;;
36303;SDS011;22335;49.800;8.596;2022-08-01T10:10:25;4.72;;;4.43;;
36303;SDS011;22335;49.800;8.596;2022-08-01T10:17:14;4.60;;;4.30;;
36303;SDS011;22335;49.800;8.596;2022-08-01T10:24:03;4.38;;;4.07;;
36303;SDS011;22335;49.800;8.596;2022-08-01T10:30:53;25.65;;;5.20;;
36303;SDS011;22335;49.800;8.596;2022-08-01T10:37:39;4.88;;;4.57;;
36303;SDS011;22335;49.800;8.596;2022-08-01T10:44:33;4.50;;;4.20;;
36303;SDS011;22335;49.800;8.596;2022-08-01T10:51:23;4.15;;;3.92;;
36303;SDS011;22335;49.800;8.596;2022-08-01T10:58:30;4.32;;;4.03;;
36303;SDS011;22335;49.800;8.596;2022-08-01T11:05:24;4.72;;;4.43;;
36303;SDS011;22335;49.800;8.596;2022-08-01T11:12:16;4.30;;;4.05;;
36303;SDS011;22335;49.800;8.596;2022-08-01T11:19:05;4.07;;;3.85;;
36303;SDS011;22335;49.800;8.596;2022-08-01T11:33:13;4.60;;;4.22;;
36303;SDS011;22335;49.800;8.596;2022-08-01T11:40:13;3.95;;;3.65;;
36303;SDS011;22335;49.800;8.596;2022-08-01T11:47:03;4.60;;;4.28;;
36303;SDS011;22335;49.800;8.596;2022-08-01T11:53:57;4.95;;;4.60;;
36303;SDS011;22335;49.800;8.596;2022-08-01T12:00:49;4.00;;;3.70;;
36303;SDS011;22335;49.800;8.596;2022-08-01T12:07:36;4.80;;;4.15;;
36303;SDS011;22335;49.800;8.596;2022-08-01T12:14:25;3.92;;;3.72;;
36303;SDS011;22335;49.800;8.596;2022-08-01T12:21:11;3.80;;;3.60;;
36303;SDS011;22335;49.800;8.596;2022-08-01T12:27:59;3.95;;;3.75;;
36303;SDS011;22335;49.800;8.596;2022-08-01T12:34:49;4.00;;;3.80;;
36303;SDS011;22335;49.800;8.596;2022-08-01T12:41:35;4.07;;;3.88;;
36303;SDS011;22335;49.800;8.596;2022-08-01T12:48:21;3.72;;;3.53;;
36303;SDS011;22335;49.800;8.596;2022-08-01T12:55:13;4.43;;;4.13;;
36303;SDS011;22335;49.800;8.596;2022-08-01T13:02:07;3.67;;;3.47;;
36303;SDS011;22335;49.800;8.596;2022-08-01T13:08:53;3.72;;;3.53;;
36303;SDS011;22335;49.800;8.596;2022-08-01T13:15:42;3.75;;;3.45;;
36303;SDS011;22335;49.800;8.596;2022-08-01T13:22:32;3.85;;;3.55;;
36303;SDS011;22335;49.800;8.596;2022-08-01T13:29:18;4.30;;;4.00;;
36303;SDS011;22335;49.800;8.596;2022-08-01T13:36:09;4.30;;;3.30;;
36303;SDS011;22335;49.800;8.596;2022-08-01T13:42:57;3.85;;;3.65;;
36303;SDS011;22335;49.800;8.596;2022-08-01T13:49:43;3.70;;;3.38;;
36303;SDS011;22335;49.800;8.596;2022-08-01T13:56:31;3.90;;;3.65;;
36303;SDS011;22335;49.800;8.596;2022-08-01T14:03:17;3.67;;;3.30;;
36303;SDS011;22335;49.800;8.596;2022-08-01T14:10:14;3.38;;;3.17;;
36303;SDS011;22335;49.800;8.596;2022-08-01T14:17:04;3.95;;;3.28;;
36303;SDS011;22335;49.800;8.596;2022-08-01T14:23:49;4.18;;;3.88;;
36303;SDS011;22335;49.800;8.596;2022-08-01T14:30:35;3.58;;;3.38;;
36303;SDS011;22335;49.800;8.596;2022-08-01T14:37:25;3.88;;;3.58;;
36303;SDS011;22335;49.800;8.596;2022-08-01T14:44:18;3.40;;;3.20;;
36303;SDS011;22335;49.800;8.596;2022-08-01T14:51:08;3.53;;;3.33;;
36303;SDS011;22335;49.800;8.596;2022-08-01T14:57:56;3.80;;;3.40;;
36303;SDS011;22335;49.800;8.596;2022-08-01T15:04:42;3.80;;;3.60;;
36303;SDS011;22335;49.800;8.596;2022-08-01T15:11:28;7.78;;;3.33;;
36303;SDS011;22335;49.800;8.596;2022-08-01T15:18:17;3.97;;;3.67;;
36303;SDS011;22335;49.800;8.596;2022-08-01T15:25:03;3.88;;;3.58;;
36303;SDS011;22335;49.800;8.596;2022-08-01T15:31:50;4.40;;;3.40;;
36303;SDS011;22335;49.800;8.596;2022-08-01T15:38:39;3.75;;;3.47;;
36303;SDS011;22335;49.800;8.596;2022-08-01T15:45:25;3.67;;;3.35;;
36303;SDS011;22335;49.800;8.596;2022-08-01T15:52:28;4.40;;;4.00;;
36303;SDS011;22335;49.800;8.596;2022-08-01T15:59:16;5.25;;;3.88;;
36303;SDS011;22335;49.800;8.596;2022-08-01T16:06:03;4.05;;;3.85;;
36303;SDS011;22335;49.800;8.596;2022-08-01T16:12:49;4.38;;;4.07;;
36303;SDS011;22335;49.800;8.596;2022-08-01T16:19:37;3.78;;;3.58;;
36303;SDS011;22335;49.800;8.596;2022-08-01T16:26:23;4.43;;;4.13;;
36303;SDS011;22335;49.800;8.596;2022-08-01T16:33:09;4.25;;;4.03;;
36303;SDS011;22335;49.800;8.596;2022-08-01T16:40:17;3.72;;;3.53;;
36303;SDS011;22335;49.800;8.596;2022-08-01T16:47:04;4.05;;;3.70;;
36303;SDS011;22335;49.800;8.596;2022-08-01T16:53:50;4.53;;;4.07;;
36303;SDS011;22335;49.800;8.596;2022-08-01T17:00:38;4.38;;;3.97;;
36303;SDS011;22335;49.800;8.596;2022-08-01T17:07:37;5.03;;;4.60;;
36303;SDS011;22335;49.800;8.596;2022-08-01T17:14:24;5.25;;;4.72;;
36303;SDS011;22335;49.800;8.596;2022-08-01T17:21:12;4.55;;;4.32;;
36303;SDS011;22335;49.800;8.596;2022-08-01T17:27:58;4.90;;;4.45;;
36303;SDS011;22335;49.800;8.596;2022-08-01T17:34:44;4.50;;;4.20;;
36303;SDS011;22335;49.800;8.596;2022-08-01T17:41:33;5.20;;;4.15;;
36303;SDS011;22335;49.800;8.596;2022-08-01T17:48:19;5.43;;;5.03;;
36303;SDS011;22335;49.800;8.596;2022-08-01T17:55:05;6.50;;;4.28;;
36303;SDS011;22335;49.800;8.596;2022-08-01T18:02:14;5.13;;;4.38;;
36303;SDS011;22335;49.800;8.596;2022-08-01T18:09:00;5.05;;;4.70;;
36303;SDS011;22335;49.800;8.596;2022-08-01T18:15:49;4.50;;;4.20;;
36303;SDS011;22335;49.800;8.596;2022-08-01T18:22:39;5.82;;;4.53;;
36303;SDS011;22335;49.800;8.596;2022-08-01T18:29:24;5.20;;;4.80;;
36303;SDS011;22335;49.800;8.596;2022-08-01T18:36:28;5.22;;;4.75;;
36303;SDS011;22335;49.800;8.596;2022-08-01T18:43:17;5.68;;;4.50;;
36303;SDS011;22335;49.800;8.596;2022-08-01T18:50:03;6.78;;;4.97;;
36303;SDS011;22335;49.800;8.596;2022-08-01T18:56:51;6.32;;;5.03;;
36303;SDS011;22335;49.800;8.596;2022-08-01T19:03:40;6.22;;;4.60;;
36303;SDS011;22335;49.800;8.596;2022-08-01T19:10:25;5.00;;;4.55;;
36303;SDS011;22335;49.800;8.596;2022-08-01T19:17:11;4.63;;;4.20;;
36303;SDS011;22335;49.800;8.596;2022-08-01T19:24:00;5.30;;;4.18;;
36303;SDS011;22335;49.800;8.596;2022-08-01T19:31:04;5.13;;;4.80;;
36303;SDS011;22335;49.800;8.596;2022-08-01T19:37:51;5.13;;;4.63;;
36303;SDS011;22335;49.800;8.596;2022-08-01T19:44:39;4.82;;;4.50;;
36303;SDS011;22335;49.800;8.596;2022-08-01T19:51:26;6.13;;;5.35;;
36303;SDS011;22335;49.800;8.596;2022-08-01T19:58:14;5.63;;;5.13;;
36303;SDS011;22335;49.800;8.596;2022-08-01T20:05:11;6.82;;;6.30;;
36303;SDS011;22335;49.800;8.596;2022-08-01T20:11:57;5.50;;;5.10;;
36303;SDS011;22335;49.800;8.596;2022-08-01T20:18:43;7.22;;;5.63;;
36303;SDS011;22335;49.800;8.596;2022-08-01T20:25:31;6.55;;;5.97;;
36303;SDS011;22335;49.800;8.596;2022-08-01T20:32:20;6.50;;;5.90;;
36303;SDS011;22335;49.800;8.596;2022-08-01T20:39:14;6.20;;;5.70;;
36303;SDS011;22335;49.800;8.596;2022-08-01T20:46:04;6.43;;;5.93;;
36303;SDS011;22335;49.800;8.596;2022-08-01T20:52:50;6.97;;;6.18;;
36303;SDS011;22335;49.800;8.596;2022-08-01T20:59:36;7.80;;;6.25;;
36303;SDS011;22335;49.800;8.596;2022-08-01T21:06:40;5.72;;;5.32;;
36303;SDS011;22335;49.800;8.596;2022-08-01T21:13:32;6.93;;;6.22;;
36303;SDS011;22335;49.800;8.596;2022-08-01T21:20:26;7.30;;;5.97;;
36303;SDS011;22335;49.800;8.596;2022-08-01T21:27:17;6.80;;;6.30;;
36303;SDS011;22335;49.800;8.596;2022-08-01T21:34:14;7.50;;;6.90;;
36303;SDS011;22335;49.800;8.596;2022-08-01T21:41:01;6.15;;;5.65;;
36303;SDS011;22335;49.800;8.596;2022-08-01T21:47:53;6.72;;;6.22;;
36303;SDS011;22335;49.800;8.596;2022-08-01T21:54:51;6.25;;;5.85;;
36303;SDS011;22335;49.800;8.596;2022-08-01T22:01:52;6.18;;;5.65;;
36303;SDS011;22335;49.800;8.596;2022-08-01T22:08:50;6.57;;;6.07;;
36303;SDS011;22335;49.800;8.596;2022-08-01T22:15:38;6.13;;;5.65;;
36303;SDS011;22335;49.800;8.596;2022-08-01T22:22:27;6.43;;;5.88;;
36303;SDS011;22335;49.800;8.596;2022-08-01T22:29:35;6.22;;;5.78;;
36303;SDS011;22335;49.800;8.596;2022-08-01T22:36:21;5.75;;;5.28;;
36303;SDS011;22335;49.800;8.596;2022-08-01T22:43:10;6.47;;;6.07;;
36303;SDS011;22335;49.800;8.596;2022-08-01T22:50:11;7.72;;;6.40;;
36303;SDS011;22335;49.800;8.596;2022-08-01T22:57:19;6.95;;;6.32;;
36303;SDS011;22335;49.800;8.596;2022-08-01T23:04:18;6.40;;;6.00;;
36303;SDS011;22335;49.800;8.596;2022-08-01T23:11:17;6.80;;;6.30;;
36303;SDS011;22335;49.800;8.596;2022-08-01T23:18:04;7.45;;;6.88;;
36303;SDS011;22335;49.800;8.596;2022-08-01T23:24:50;6.22;;;5.82;;
36303;SDS011;22335;49.800;8.596;2022-08-01T23:31:48;7.18;;;6.63;;
36303;SDS011;22335;49.800;8.596;2022-08-01T23:38:51;6.22;;;5.80;;
36303;SDS011;22335;49.800;8.596;2022-08-01T23:45:36;6.80;;;6.30;;
36303;SDS011;22335;49.800;8.596;2022-08-01T23:52:44;6.68;;;6.25;;
36303;SDS011;22335;49.800;8.596;2022-08-01T23:59:31;6.78;;;6.38;;
